Time;durP1;ratioP1;P1;durP2;ratioP2;P2;SDS_P1;SDS_P2;PMS_P1;PMS_P2;Temp;Humidity;BMP_temperature;BMP_pressure;BME280_temperature;BME280_humidity;BME280_pressure;Samples;Min_cycle;Max_cycle;Signal;HPM_P1;HPM_P2
2024/01/20 00:01:08;;;;;;;;;;;18.80;37.10;;;;;;8332513;28;20284;-49
2024/01/20 00:05:09;;;;;;;0.80;0.80;;;18.80;37.00;;;;;;8331908;28;19910;-47
2024/01/20 00:09:10;;;;;;;0.60;0.60;;;18.80;36.70;;;;;;8331619;28;20441;-47
2024/01/20 00:13:11;;;;;;;0.60;0.60;;;18.90;36.40;;;;;;8331655;28;20041;-47
2024/01/20 00:17:12;;;;;;;0.80;0.80;;;18.90;36.20;;;;;;8331563;28;20044;-47
2024/01/20 00:21:13;;;;;;;0.85;0.80;;;19.00;36.10;;;;;;8331538;28;20037;-47
2024/01/20 00:25:14;;;;;;;0.65;0.60;;;19.00;35.90;;;;;;8331280;28;20533;-48
2024/01/20 00:29:14;;;;;;;0.73;0.60;;;19.00;35.80;;;;;;8331310;28;20391;-48
2024/01/20 00:33:15;;;;;;;1.47;1.37;;;19.00;35.70;;;;;;8331601;28;20288;-47
2024/01/20 00:37:16;;;;;;;1.05;0.95;;;19.00;35.60;;;;;;8330807;28;20280;-47
2024/01/20 00:41:17;;;;;;;0.73;0.60;;;19.00;35.60;;;;;;8331057;28;20026;-47
2024/01/20 00:45:17;;;;;;;0.70;0.70;;;18.90;36.40;;;;;;8330660;28;20050;-49
2024/01/20 00:49:18;;;;;;;0.75;0.75;;;18.70;37.00;;;;;;8329480;28;20033;-48
2024/01/20 00:53:19;;;;;;;1.00;0.90;;;18.80;36.90;;;;;;8330561;28;20065;-47
2024/01/20 00:57:19;;;;;;;2.53;0.80;;;18.80;36.60;;;;;;8330227;28;20053;-46
2024/01/20 01:01:20;;;;;;;1.27;0.88;;;18.90;36.40;;;;;;8330273;28;20116;-47
2024/01/20 01:05:21;;;;;;;1.27;1.10;;;18.90;36.10;;;;;;8328835;28;20590;-47
2024/01/20 01:09:21;;;;;;;1.48;0.85;;;19.00;36.10;;;;;;8329728;28;20499;-47
2024/01/20 01:13:22;;;;;;;0.80;0.80;;;19.00;35.90;;;;;;8328783;28;20049;-48
2024/01/20 01:17:23;;;;;;;1.05;0.60;;;19.00;35.80;;;;;;8330102;28;20029;-46
2024/01/20 01:21:24;;;;;;;1.10;0.70;;;19.00;35.70;;;;;;8330155;28;20034;-46
2024/01/20 01:25:24;;;;;;;0.95;0.88;;;19.00;35.70;;;;;;8329619;28;20111;-47
2024/01/20 01:29:25;;;;;;;1.27;1.00;;;19.00;35.60;;;;;;8295200;28;20034;-46
2024/01/20 01:33:26;;;;;;;0.93;0.82;;;18.90;36.50;;;;;;8296640;28;20038;-47
2024/01/20 01:37:27;;;;;;;0.77;0.75;;;18.80;37.20;;;;;;8295281;28;20034;-46
2024/01/20 01:41:27;;;;;;;1.17;0.98;;;18.80;36.90;;;;;;8296284;28;20041;-48
2024/01/20 01:45:29;;;;;;;1.33;0.90;;;18.90;36.50;;;;;;8296529;28;20099;-45
2024/01/20 01:49:29;;;;;;;1.08;0.80;;;18.90;36.30;;;;;;8295158;28;20377;-47
2024/01/20 01:53:32;;;;;;;0.98;0.90;;;18.90;36.10;;;;;;8296023;28;20133;-46
2024/01/20 01:57:35;;;;;;;1.00;0.82;;;19.00;35.90;;;;;;8311469;28;20430;-46
2024/01/20 02:01:35;;;;;;;0.80;0.80;;;19.00;35.90;;;;;;8328569;28;20037;-47
2024/01/20 02:05:36;;;;;;;0.98;0.90;;;19.00;35.70;;;;;;8328622;28;20526;-46
2024/01/20 02:09:46;;;;;;;1.08;0.80;;;19.00;35.70;;;;;;8388718;28;20857;-45
2024/01/20 02:13:47;;;;;;;1.48;1.02;;;19.00;35.60;;;;;;8371764;28;20090;-47
2024/01/20 02:17:54;;;;;;;0.70;0.70;;;19.00;35.50;;;;;;8388594;28;20033;-46
2024/01/20 02:21:55;;;;;;;0.73;0.70;;;18.90;36.50;;;;;;8388197;28;20040;-47
2024/01/20 02:25:55;;;;;;;0.83;0.80;;;18.80;37.00;;;;;;8388220;28;20032;-45
2024/01/20 02:29:56;;;;;;;1.00;0.93;;;18.80;36.70;;;;;;8387991;28;20278;-45
2024/01/20 02:33:57;;;;;;;1.25;1.15;;;18.80;36.40;;;;;;8388099;28;20522;-46
2024/01/20 02:37:59;;;;;;;0.85;0.82;;;18.90;36.20;;;;;;8388079;28;20041;-47
2024/01/20 02:42:00;;;;;;;1.00;0.88;;;18.90;36.00;;;;;;8387545;28;20040;-45
2024/01/20 02:46:01;;;;;;;1.15;1.00;;;19.00;35.90;;;;;;8386413;28;20076;-46
2024/01/20 02:50:01;;;;;;;1.20;1.02;;;19.00;35.80;;;;;;8387721;28;20505;-45
2024/01/20 02:54:02;;;;;;;0.88;0.80;;;19.00;35.70;;;;;;8387449;28;20032;-47
2024/01/20 02:58:03;;;;;;;0.80;0.75;;;19.00;35.60;;;;;;8387096;28;20033;-46
2024/01/20 03:02:04;;;;;;;1.17;0.95;;;19.10;35.50;;;;;;8387035;28;20029;-45
2024/01/20 03:06:05;;;;;;;1.05;0.90;;;19.00;35.50;;;;;;8386398;28;20049;-45
2024/01/20 03:10:06;;;;;;;1.35;1.23;;;18.90;36.60;;;;;;8386845;28;20086;-46
2024/01/20 03:14:06;;;;;;;;;;;18.80;37.00;;;;;;8386896;28;20033;-48
2024/01/20 03:18:07;;;;;;;0.87;0.87;;;18.80;36.60;;;;;;8380813;28;19909;-47
2024/01/20 03:22:08;;;;;;;1.20;0.90;;;18.80;36.30;;;;;;8364505;28;20125;-48
2024/01/20 03:26:10;;;;;;;1.17;0.97;;;18.90;36.10;;;;;;8364192;28;20331;-46
2024/01/20 03:30:11;;;;;;;1.30;1.20;;;19.00;36.00;;;;;;8364238;28;20746;-45
2024/01/20 03:34:11;;;;;;;1.20;1.10;;;19.00;35.80;;;;;;8364316;28;20051;-46
2024/01/20 03:38:12;;;;;;;1.25;0.88;;;19.00;35.70;;;;;;8364173;28;20040;-46
2024/01/20 03:42:13;;;;;;;1.42;0.95;;;19.00;35.60;;;;;;8362300;28;20040;-48
2024/01/20 03:46:17;;;;;;;1.27;1.17;;;19.00;35.60;;;;;;8363902;28;20039;-45
2024/01/20 03:50:18;;;;;;;0.98;0.90;;;19.00;35.40;;;;;;8362529;28;20052;-47
2024/01/20 03:54:18;;;;;;;0.82;0.80;;;19.00;35.60;;;;;;8363434;28;20033;-46
2024/01/20 03:58:19;;;;;;;0.93;0.70;;;18.90;36.60;;;;;;8363564;28;20151;-46
2024/01/20 04:02:20;;;;;;;1.20;1.10;;;18.70;36.90;;;;;;8363432;28;20061;-47
2024/01/20 04:06:20;;;;;;;0.70;0.70;;;18.80;37.10;;;;;;8363047;28;20060;-46
2024/01/20 04:10:21;;;;;;;1.10;1.00;;;18.80;36.30;;;;;;8363090;28;20740;-45
2024/01/20 04:14:22;;;;;;;0.80;0.80;;;18.90;36.00;;;;;;8362828;28;20546;-47
2024/01/20 04:18:22;;;;;;;0.95;0.90;;;18.90;35.90;;;;;;8362568;28;20041;-46
2024/01/20 04:22:23;;;;;;;1.13;1.00;;;18.90;35.70;;;;;;8361425;28;20509;-49
2024/01/20 04:26:24;;;;;;;0.90;0.88;;;19.00;35.70;;;;;;8362133;28;20306;-46
2024/01/20 04:30:25;;;;;;;1.77;1.08;;;19.00;35.50;;;;;;8361445;28;20441;-46
2024/01/20 04:34:25;;;;;;;1.00;0.95;;;19.00;35.40;;;;;;8362243;28;20111;-46
2024/01/20 04:38:26;;;;;;;1.00;0.75;;;19.00;35.40;;;;;;8361997;28;20036;-45
2024/01/20 04:42:27;;;;;;;0.93;0.82;;;19.00;35.60;;;;;;8362045;28;20082;-45
2024/01/20 04:46:28;;;;;;;1.10;0.98;;;18.80;36.50;;;;;;8361727;28;20059;-45
2024/01/20 04:50:28;;;;;;;1.35;0.85;;;18.70;36.90;;;;;;8361969;28;20479;-45
2024/01/20 04:54:29;;;;;;;1.02;0.90;;;18.80;36.50;;;;;;8361556;28;20571;-47
2024/01/20 04:58:30;;;;;;;1.13;0.85;;;18.80;36.20;;;;;;8361486;28;20116;-47
2024/01/20 05:02:31;;;;;;;;;;;18.90;36.00;;;;;;8361693;28;20047;-46
2024/01/20 05:06:31;;;;;;;1.43;1.20;;;18.90;35.80;;;;;;8360816;28;20422;-48
2024/01/20 05:10:33;;;;;;;1.70;1.20;;;19.00;35.70;;;;;;8360908;28;20032;-46
2024/01/20 05:14:34;;;;;;;1.25;1.15;;;18.90;35.60;;;;;;8360985;28;20505;-45
2024/01/20 05:18:35;;;;;;;1.08;0.95;;;19.00;35.50;;;;;;8359494;28;20387;-47
2024/01/20 05:22:35;;;;;;;0.98;0.90;;;19.00;35.40;;;;;;8360709;28;20044;-48
2024/01/20 05:26:39;;;;;;;1.17;1.08;;;19.00;35.40;;;;;;8360344;28;20098;-46
2024/01/20 05:30:40;;;;;;;1.15;1.05;;;18.90;35.70;;;;;;8360491;28;20518;-45
2024/01/20 05:34:41;;;;;;;1.27;1.17;;;18.80;36.70;;;;;;8360201;28;20029;-45
2024/01/20 05:38:42;;;;;;;1.13;1.00;;;18.70;36.90;;;;;;8360438;28;20043;-47
2024/01/20 05:42:42;;;;;;;1.20;1.10;;;18.70;36.50;;;;;;8359862;28;20558;-46
2024/01/20 05:46:43;;;;;;;1.20;1.10;;;18.80;36.20;;;;;;8359946;28;20076;-46
2024/01/20 05:50:44;;;;;;;1.13;1.02;;;18.80;36.00;;;;;;8359962;28;20393;-46
2024/01/20 05:54:44;;;;;;;1.35;1.00;;;18.90;35.80;;;;;;8359747;28;20033;-47
2024/01/20 05:58:45;;;;;;;1.63;1.38;;;18.90;35.70;;;;;;8359754;28;20493;-45
2024/01/20 06:02:46;;;;;;;1.25;1.15;;;18.90;35.50;;;;;;8359744;28;20033;-45
2024/01/20 06:06:48;;;;;;;1.50;0.93;;;19.00;35.40;;;;;;8358030;28;20048;-46
2024/01/20 06:10:50;;;;;;;1.55;1.10;;;19.00;35.30;;;;;;8359817;28;20029;-45
2024/01/20 06:14:50;;;;;;;0.80;0.80;;;19.00;35.30;;;;;;8359601;28;20542;-45
2024/01/20 06:18:51;;;;;;;1.40;1.20;;;19.00;35.70;;;;;;8359447;28;20445;-45
2024/01/20 06:22:52;;;;;;;1.17;1.08;;;18.80;36.60;;;;;;8358285;28;20275;-49
2024/01/20 06:26:52;;;;;;;1.92;1.10;;;18.80;36.60;;;;;;8359449;28;20033;-48
2024/01/20 06:30:53;;;;;;;1.13;1.00;;;18.90;36.30;;;;;;8359035;28;20033;-48
2024/01/20 06:34:54;;;;;;;1.20;1.10;;;18.90;35.90;;;;;;8359213;28;20029;-47
2024/01/20 06:38:55;;;;;;;1.40;1.30;;;19.00;35.80;;;;;;8357880;28;20033;-47
2024/01/20 06:42:55;;;;;;;1.55;1.23;;;19.00;35.70;;;;;;8359293;28;20283;-49
2024/01/20 06:46:56;;;;;;;1.55;1.10;;;19.00;35.50;;;;;;8358775;28;20044;-49
2024/01/20 06:50:59;;;;;;;1.90;1.80;;;19.00;35.40;;;;;;8359180;28;20032;-49
2024/01/20 06:54:59;;;;;;;1.35;1.25;;;19.10;35.30;;;;;;8362459;28;20029;-48
2024/01/20 06:59:00;;;;;;;1.17;1.02;;;19.10;35.20;;;;;;8365050;28;20033;-47
2024/01/20 07:03:02;;;;;;;1.30;1.10;;;19.10;35.20;;;;;;8363723;28;20491;-47
2024/01/20 07:07:03;;;;;;;1.23;1.13;;;19.00;35.70;;;;;;8364679;28;20060;-48
2024/01/20 07:11:08;;;;;;;1.27;1.17;;;18.80;36.50;;;;;;8364930;28;20029;-50
2024/01/20 07:15:09;;;;;;;2.58;1.77;;;18.70;36.60;;;;;;8365353;28;20118;-48
2024/01/20 07:19:10;;;;;;;1.55;1.30;;;18.80;36.20;;;;;;8364627;28;20025;-49
2024/01/20 07:23:11;;;;;;;1.70;1.27;;;18.90;36.00;;;;;;8346996;28;20044;-50
2024/01/20 07:27:13;;;;;;;1.08;0.98;;;18.90;35.80;;;;;;8346803;28;20037;-51
2024/01/20 07:31:14;;;;;;;1.23;1.00;;;19.00;35.70;;;;;;8346506;28;20021;-47
2024/01/20 07:35:14;;;;;;;1.35;1.10;;;19.00;35.50;;;;;;8362916;28;20111;-47
2024/01/20 07:39:15;;;;;;;1.48;1.08;;;19.00;35.40;;;;;;8362779;28;20035;-47
2024/01/20 07:43:16;;;;;;;1.85;1.20;;;19.00;35.30;;;;;;8363977;28;20040;-46
2024/01/20 07:47:17;;;;;;;1.50;1.40;;;19.00;35.30;;;;;;8363588;28;20395;-48
2024/01/20 07:51:17;;;;;;;1.52;1.27;;;19.10;35.20;;;;;;8362430;28;20107;-47
2024/01/20 07:55:18;;;;;;;1.20;1.10;;;18.90;35.80;;;;;;8363258;28;20037;-47
2024/01/20 07:59:19;;;;;;;1.55;1.15;;;18.80;36.70;;;;;;8363237;28;20033;-47
2024/01/20 08:03:19;;;;;;;1.25;1.15;;;18.70;36.60;;;;;;8363127;28;20387;-47
2024/01/20 08:07:21;;;;;;;1.52;1.10;;;18.80;36.20;;;;;;8344577;28;20045;-47
2024/01/20 08:11:21;;;;;;;1.45;1.20;;;18.90;35.90;;;;;;8363038;28;20116;-47
2024/01/20 08:15:23;;;;;;;1.30;1.00;;;19.00;35.70;;;;;;8362878;28;20540;-49
2024/01/20 08:19:24;;;;;;;1.20;1.10;;;19.00;35.60;;;;;;8362609;28;20045;-48
2024/01/20 08:23:24;;;;;;;1.10;1.00;;;19.00;35.40;;;;;;8362800;28;20041;-48
2024/01/20 08:27:25;;;;;;;1.00;0.90;;;19.00;35.30;;;;;;8362067;28;20111;-47
2024/01/20 08:31:27;;;;;;;1.88;1.20;;;19.00;35.30;;;;;;8362432;28;20633;-48
2024/01/20 08:35:27;;;;;;;1.20;1.10;;;19.10;35.20;;;;;;8362338;28;20041;-48
2024/01/20 08:39:28;;;;;;;2.23;1.43;;;19.10;35.10;;;;;;8360759;28;20584;-48
2024/01/20 08:43:29;;;;;;;1.33;1.23;;;18.90;35.90;;;;;;8362124;28;20290;-47
2024/01/20 08:47:29;;;;;;;1.63;1.27;;;18.80;36.60;;;;;;8362186;28;20037;-47
2024/01/20 08:51:30;;;;;;;1.25;1.15;;;18.80;36.40;;;;;;8361580;28;20036;-48
2024/01/20 08:55:31;;;;;;;2.92;1.52;;;18.90;36.10;;;;;;8361601;28;20041;-48
2024/01/20 08:59:32;;;;;;;0.90;0.90;;;18.90;35.80;;;;;;8361355;28;20037;-47
2024/01/20 09:03:33;;;;;;;1.48;1.38;;;18.90;35.60;;;;;;8361311;28;20048;-47
2024/01/20 09:07:34;;;;;;;1.27;1.17;;;19.00;35.60;;;;;;8361178;28;20048;-47
2024/01/20 09:11:34;;;;;;;1.63;1.30;;;19.00;35.50;;;;;;8360970;28;20159;-48
2024/01/20 09:15:35;;;;;;;1.27;0.95;;;19.00;35.30;;;;;;8360621;28;20029;-47
2024/01/20 09:19:36;;;;;;;1.27;1.17;;;19.00;35.30;;;;;;8360826;28;20029;-47
2024/01/20 09:23:37;;;;;;;1.10;1.00;;;19.00;35.20;;;;;;8360722;28;20108;-47
2024/01/20 09:27:37;;;;;;;1.17;1.08;;;19.00;35.20;;;;;;8360617;28;20069;-47
2024/01/20 09:31:38;;;;;;;1.10;1.00;;;18.80;36.00;;;;;;8360555;28;20029;-47
2024/01/20 09:35:39;;;;;;;1.27;1.10;;;18.70;36.70;;;;;;8360362;28;20498;-47
2024/01/20 09:39:39;;;;;;;1.87;1.13;;;18.80;36.40;;;;;;8360682;28;20108;-47
2024/01/20 09:43:41;;;;;;;1.23;1.13;;;18.90;36.10;;;;;;8360283;28;20632;-47
2024/01/20 09:47:42;;;;;;;1.52;1.17;;;18.90;35.80;;;;;;8359927;28;20033;-46
2024/01/20 09:51:51;;;;;;;1.60;1.40;;;18.90;35.60;;;;;;8360122;28;20074;-46
2024/01/20 09:55:52;;;;;;;1.88;1.30;;;19.00;35.50;;;;;;8358613;28;20083;-46
2024/01/20 09:59:55;;;;;;;1.52;1.38;;;19.00;35.40;;;;;;8359760;28;20037;-48
2024/01/20 10:04:02;;;;;;;1.13;1.00;;;19.00;35.30;;;;;;8359714;28;20078;-49
2024/01/20 10:08:04;;;;;;;2.08;1.42;;;19.00;35.20;;;;;;8359904;28;20103;-46
2024/01/20 10:12:05;;;;;;;1.83;1.35;;;19.00;35.10;;;;;;8359588;28;20033;-48
2024/01/20 10:16:07;;;;;;;1.45;1.23;;;19.00;35.10;;;;;;8359634;28;20036;-47
2024/01/20 10:20:07;;;;;;;1.13;1.02;;;18.90;36.10;;;;;;8359779;28;20087;-47
2024/01/20 10:24:08;;;;;;;1.40;1.05;;;18.70;36.70;;;;;;8359362;28;20112;-48
2024/01/20 10:28:11;;;;;;;1.75;1.35;;;18.70;36.30;;;;;;8360050;28;20543;-48
2024/01/20 10:32:12;;;;;;;1.38;0.93;;;18.80;36.00;;;;;;8365927;28;20033;-48
2024/01/20 10:36:16;;;;;;;1.27;1.10;;;18.90;35.80;;;;;;8365972;28;20608;-47
2024/01/20 10:40:17;;;;;;;1.50;1.20;;;18.90;35.60;;;;;;8365881;28;20086;-47
2024/01/20 10:44:22;;;;;;;1.55;1.20;;;19.00;35.50;;;;;;8365785;28;20052;-50
2024/01/20 10:48:27;;;;;;;1.95;1.35;;;19.00;35.40;;;;;;8364197;28;20040;-47
2024/01/20 10:52:28;;;;;;;1.55;1.30;;;19.00;35.30;;;;;;8365185;28;20104;-47
2024/01/20 10:56:29;;;;;;;1.65;1.20;;;19.00;35.20;;;;;;8364180;28;20037;-48
2024/01/20 11:00:30;;;;;;;;;;;19.00;35.10;;;;;;8365578;28;20483;-47
2024/01/20 11:04:40;;;;;;;1.50;0.80;;;19.00;35.20;;;;;;8363854;28;20341;-46
2024/01/20 11:08:53;;;;;;;1.75;1.45;;;18.80;36.20;;;;;;8365050;28;20049;-48
2024/01/20 11:13:04;;;;;;;1.92;1.55;;;18.70;36.60;;;;;;8364847;28;20057;-47
2024/01/20 11:17:14;;;;;;;1.35;1.15;;;18.80;36.20;;;;;;8365158;28;20060;-47
2024/01/20 11:21:16;;;;;;;1.30;1.15;;;18.90;35.90;;;;;;8364455;28;20037;-47
2024/01/20 11:25:18;;;;;;;1.35;1.08;;;18.90;35.70;;;;;;8364196;28;20393;-48
2024/01/20 11:29:26;;;;;;;1.45;1.15;;;18.90;35.60;;;;;;8364063;28;20037;-49
2024/01/20 11:33:27;;;;;;;1.17;1.08;;;19.00;35.40;;;;;;8364203;28;20110;-48
2024/01/20 11:37:29;;;;;;;1.30;1.10;;;19.00;35.90;;;;;;8363793;28;20474;-50
2024/01/20 11:41:29;;;;;;;1.25;1.13;;;19.00;35.20;;;;;;8363516;28;20029;-47
2024/01/20 11:45:30;;;;;;;1.27;0.95;;;19.00;35.10;;;;;;8362390;28;20059;-47
2024/01/20 11:49:34;;;;;;;1.57;1.03;;;19.00;35.10;;;;;;8363378;28;20037;-48
2024/01/20 11:53:35;;;;;;;1.13;1.00;;;19.00;35.50;;;;;;8363618;28;20358;-48
2024/01/20 11:57:36;;;;;;;1.33;1.23;;;18.80;36.40;;;;;;8363682;28;20083;-47
2024/01/20 12:01:37;;;;;;;1.77;1.20;;;18.70;36.40;;;;;;8363333;28;20044;-48
2024/01/20 12:05:37;;;;;;;1.88;1.40;;;18.80;36.10;;;;;;8363201;28;20040;-49
2024/01/20 12:09:43;;;;;;;1.88;1.52;;;18.80;35.80;;;;;;8362723;28;20053;-47
2024/01/20 12:13:46;;;;;;;1.30;0.98;;;18.90;35.70;;;;;;8363355;28;20512;-48
2024/01/20 12:17:46;;;;;;;1.48;1.00;;;18.90;35.50;;;;;;8363214;28;20094;-45
2024/01/20 12:21:48;;;;;;;1.08;0.98;;;19.00;35.40;;;;;;8361171;28;20394;-46
2024/01/20 12:25:53;;;;;;;0.95;0.93;;;19.00;35.20;;;;;;8362491;28;20037;-46
2024/01/20 12:29:54;;;;;;;1.08;0.82;;;19.00;35.20;;;;;;8362055;28;20116;-45
2024/01/20 12:33:55;;;;;;;0.80;0.80;;;19.00;35.10;;;;;;8362107;28;20036;-45
2024/01/20 12:37:56;;;;;;;1.40;0.93;;;19.00;35.00;;;;;;8362111;28;20029;-45
2024/01/20 12:41:57;;;;;;;1.27;1.17;;;18.90;35.60;;;;;;8361745;28;20037;-46
2024/01/20 12:45:57;;;;;;;0.98;0.95;;;18.80;36.30;;;;;;8361746;28;20033;-46
2024/01/20 12:49:58;;;;;;;1.10;1.00;;;18.80;36.30;;;;;;8361329;28;20094;-45
2024/01/20 12:53:59;;;;;;;1.10;0.95;;;18.80;36.10;;;;;;8360861;28;20515;-46
2024/01/20 12:57:59;;;;;;;1.88;1.13;;;18.90;35.80;;;;;;8361474;28;20037;-46
2024/01/20 13:02:00;;;;;;;1.30;1.13;;;18.90;35.60;;;;;;8361720;28;20037;-47
2024/01/20 13:06:01;;;;;;;1.33;1.10;;;18.90;35.40;;;;;;8360939;28;20554;-45
2024/01/20 13:10:02;;;;;;;1.10;1.00;;;19.00;35.30;;;;;;8361008;28;20299;-46
2024/01/20 13:14:03;;;;;;;0.90;0.90;;;19.00;35.20;;;;;;8361069;28;20029;-46
2024/01/20 13:18:05;;;;;;;1.50;1.38;;;19.00;35.20;;;;;;8361289;28;20036;-47
2024/01/20 13:22:05;;;;;;;1.10;0.98;;;19.00;35.10;;;;;;8360867;28;20033;-46
2024/01/20 13:26:06;;;;;;;1.80;1.27;;;19.00;35.10;;;;;;8360608;28;20116;-45
2024/01/20 13:30:07;;;;;;;1.37;1.13;;;18.90;35.70;;;;;;8360494;28;20025;-47
2024/01/20 13:34:08;;;;;;;0.90;0.85;;;18.80;36.50;;;;;;8360438;28;20286;-45
2024/01/20 13:38:09;;;;;;;1.00;0.90;;;18.80;36.30;;;;;;8360543;28;20033;-48
2024/01/20 13:42:10;;;;;;;1.30;1.20;;;18.80;36.00;;;;;;8360180;28;20729;-46
2024/01/20 13:46:12;;;;;;;0.93;0.90;;;18.90;35.70;;;;;;8359980;28;20029;-46
2024/01/20 13:50:13;;;;;;;0.80;0.80;;;18.90;35.50;;;;;;8360200;28;20497;-45
2024/01/20 13:54:14;;;;;;;1.20;0.88;;;19.00;35.40;;;;;;8360411;28;20363;-45
2024/01/20 13:58:14;;;;;;;1.05;0.95;;;19.00;35.30;;;;;;8359800;28;20094;-48
2024/01/20 14:02:15;;;;;;;1.00;0.90;;;19.00;35.20;;;;;;8358762;28;20033;-46
2024/01/20 14:06:18;;;;;;;0.98;0.95;;;19.00;35.10;;;;;;8359419;28;20060;-45
2024/01/20 14:10:18;;;;;;;1.08;0.82;;;19.00;35.00;;;;;;8359671;28;20033;-45
2024/01/20 14:14:19;;;;;;;1.05;0.90;;;19.00;35.00;;;;;;8342146;28;20552;-47
2024/01/20 14:18:20;;;;;;;1.05;0.88;;;18.90;35.80;;;;;;8359844;28;20037;-45
2024/01/20 14:22:22;;;;;;;1.45;0.95;;;18.80;36.50;;;;;;8358311;28;20191;-47
2024/01/20 14:26:23;;;;;;;1.05;0.95;;;18.80;36.30;;;;;;8359384;28;20040;-45
2024/01/20 14:30:23;;;;;;;0.90;0.90;;;18.90;36.00;;;;;;8359435;28;20118;-46
2024/01/20 14:34:24;;;;;;;1.33;1.10;;;18.90;35.70;;;;;;8358447;28;20310;-46
2024/01/20 14:38:25;;;;;;;1.02;1.00;;;18.90;35.50;;;;;;8359585;28;20090;-49
2024/01/20 14:42:26;;;;;;;1.50;1.20;;;19.00;35.40;;;;;;8358991;28;20033;-48
2024/01/20 14:46:27;;;;;;;1.20;1.00;;;19.00;35.20;;;;;;8359021;28;20040;-48
2024/01/20 14:50:28;;;;;;;;;;;19.00;35.10;;;;;;8359720;28;20029;-49
2024/01/20 14:54:28;;;;;;;1.17;0.80;;;19.00;35.00;;;;;;8358980;28;19954;-46
2024/01/20 14:58:29;;;;;;;1.00;0.90;;;19.10;35.00;;;;;;8359146;28;20037;-49
2024/01/20 15:02:30;;;;;;;0.90;0.90;;;19.10;34.90;;;;;;8357847;28;20366;-49
2024/01/20 15:06:31;;;;;;;1.00;0.90;;;18.90;35.80;;;;;;8358706;28;20303;-48
2024/01/20 15:10:31;;;;;;;1.10;0.90;;;18.80;36.50;;;;;;8358809;28;20614;-48
2024/01/20 15:14:32;;;;;;;1.02;0.80;;;18.80;36.20;;;;;;8360144;28;20469;-47
2024/01/20 15:18:33;;;;;;;1.02;0.88;;;18.90;35.90;;;;;;8364680;28;20033;-48
2024/01/20 15:22:34;;;;;;;2.38;1.73;;;18.90;35.60;;;;;;8363337;28;20112;-48
2024/01/20 15:26:36;;;;;;;1.10;1.00;;;18.90;35.40;;;;;;8364238;28;20095;-49
2024/01/20 15:30:37;;;;;;;0.98;0.90;;;19.00;35.40;;;;;;8364018;28;20084;-50
2024/01/20 15:34:38;;;;;;;0.98;0.90;;;19.00;35.20;;;;;;8364147;28;20068;-48
2024/01/20 15:38:39;;;;;;;1.08;0.98;;;19.00;35.20;;;;;;8363970;28;20040;-48
2024/01/20 15:42:39;;;;;;;1.10;1.00;;;19.00;35.00;;;;;;8363997;28;20037;-48
2024/01/20 15:46:40;;;;;;;1.13;1.00;;;19.00;35.00;;;;;;8363868;28;20036;-47
2024/01/20 15:50:41;;;;;;;1.17;1.00;;;19.00;35.00;;;;;;8363430;28;20033;-49
2024/01/20 15:54:44;;;;;;;1.08;0.98;;;18.80;35.90;;;;;;8363647;28;20033;-49
2024/01/20 15:58:47;;;;;;;1.25;1.00;;;18.70;36.50;;;;;;8363298;28;20037;-47
2024/01/20 16:02:48;;;;;;;1.00;0.90;;;18.70;36.20;;;;;;8363541;28;20153;-48
2024/01/20 16:06:50;;;;;;;1.15;1.05;;;18.80;35.90;;;;;;8362829;28;20049;-48
2024/01/20 16:10:50;;;;;;;1.20;0.90;;;18.90;35.70;;;;;;8362831;28;20100;-47
2024/01/20 16:14:51;;;;;;;1.00;0.90;;;18.90;35.50;;;;;;8362941;28;20040;-48
2024/01/20 16:18:52;;;;;;;0.82;0.80;;;18.90;35.30;;;;;;8362743;28;20033;-47
2024/01/20 16:22:52;;;;;;;1.37;1.23;;;19.00;35.20;;;;;;8362364;28;20071;-48
2024/01/20 16:26:53;;;;;;;1.33;1.10;;;19.00;35.10;;;;;;8362294;28;20291;-48
2024/01/20 16:30:54;;;;;;;1.10;1.00;;;19.00;35.00;;;;;;8362269;28;20052;-47
2024/01/20 16:34:54;;;;;;;1.20;1.10;;;19.00;34.90;;;;;;8362081;28;20029;-49
2024/01/20 16:38:55;;;;;;;1.23;1.10;;;19.10;35.00;;;;;;8362240;28;20832;-48
2024/01/20 16:42:56;;;;;;;1.15;1.05;;;18.90;36.00;;;;;;8361671;28;20276;-47
2024/01/20 16:46:57;;;;;;;1.10;1.00;;;18.80;36.40;;;;;;8361617;28;20068;-47
2024/01/20 16:50:59;;;;;;;0.90;0.90;;;18.80;36.10;;;;;;8361752;28;20368;-48
2024/01/20 16:55:00;;;;;;;0.98;0.93;;;18.90;35.80;;;;;;8361674;28;20029;-48
2024/01/20 16:59:01;;;;;;;1.02;0.82;;;18.90;35.60;;;;;;8360758;28;20033;-47
2024/01/20 17:03:02;;;;;;;1.75;1.20;;;18.90;35.40;;;;;;8360201;28;20040;-45
2024/01/20 17:07:03;;;;;;;0.80;0.70;;;19.00;35.30;;;;;;8360996;28;20064;-46
2024/01/20 17:11:04;;;;;;;2.15;1.70;;;19.00;35.10;;;;;;8360979;28;20501;-46
2024/01/20 17:15:05;;;;;;;2.85;2.42;;;18.90;35.00;;;;;;8360873;28;20037;-46
2024/01/20 17:19:07;;;;;;;3.88;2.90;;;18.80;35.30;;;;;;8358935;28;20090;-48
2024/01/20 17:23:08;;;;;;;5.47;2.70;;;18.90;35.20;;;;;;8362996;28;20486;-46
2024/01/20 17:27:08;;;;;;;3.95;2.45;;;19.10;35.30;;;;;;8362704;28;20390;-46
2024/01/20 17:31:09;;;;;;;3.92;2.75;;;19.00;36.10;;;;;;8362627;28;20067;-49
2024/01/20 17:35:10;;;;;;;5.25;2.40;;;19.00;36.30;;;;;;8362674;28;20040;-46
2024/01/20 17:39:11;;;;;;;3.45;2.25;;;19.10;35.90;;;;;;8362128;28;20041;-48
2024/01/20 17:43:12;;;;;;;2.30;2.00;;;19.20;35.70;;;;;;8362289;28;20419;-46
2024/01/20 17:47:13;;;;;;;2.90;1.98;;;19.30;35.60;;;;;;8362482;28;20040;-46
2024/01/20 17:51:14;;;;;;;2.97;2.10;;;19.40;35.30;;;;;;8361063;28;20033;-46
2024/01/20 17:55:15;;;;;;;4.70;2.05;;;19.30;35.30;;;;;;8361918;28;20033;-47
2024/01/20 17:59:15;;;;;;;3.53;2.42;;;19.30;35.50;;;;;;8362019;28;20051;-46
2024/01/20 18:03:16;;;;;;;2.20;2.00;;;19.40;35.40;;;;;;8362204;28;20040;-48
2024/01/20 18:07:17;;;;;;;2.88;2.03;;;19.50;35.40;;;;;;8361535;28;20057;-51
2024/01/20 18:11:17;;;;;;;2.50;1.73;;;19.50;35.20;;;;;;8362187;28;20033;-48
2024/01/20 18:15:18;;;;;;;3.35;1.70;;;19.50;35.20;;;;;;8361732;28;20061;-45
2024/01/20 18:19:19;;;;;;;3.50;2.10;;;19.30;36.10;;;;;;8361573;28;20036;-45
2024/01/20 18:23:21;;;;;;;2.92;2.33;;;19.20;36.30;;;;;;8359402;28;20017;-45
2024/01/20 18:27:22;;;;;;;3.17;2.28;;;19.30;36.10;;;;;;8347511;28;20449;-46
2024/01/20 18:31:23;;;;;;;2.60;2.20;;;19.30;36.00;;;;;;8353513;28;20119;-51
2024/01/20 18:35:23;;;;;;;2.33;1.80;;;19.40;36.10;;;;;;8353832;28;20056;-48
2024/01/20 18:39:24;;;;;;;2.75;1.73;;;19.50;36.40;;;;;;8356154;28;20041;-51
2024/01/20 18:43:25;;;;;;;3.50;2.13;;;19.50;36.20;;;;;;8356134;28;20160;-53
2024/01/20 18:47:25;;;;;;;2.63;1.95;;;19.50;36.10;;;;;;8355827;28;20033;-48
2024/01/20 18:51:26;;;;;;;5.72;2.15;;;19.60;36.30;;;;;;8360877;28;20033;-52
2024/01/20 18:55:27;;;;;;;1.67;1.58;;;19.60;36.00;;;;;;8362159;28;20021;-50
2024/01/20 18:59:28;;;;;;;4.38;1.73;;;19.60;36.10;;;;;;8362651;28;20505;-49
2024/01/20 19:03:28;;;;;;;3.17;2.22;;;19.60;36.90;;;;;;8362352;28;20032;-49
2024/01/20 19:07:29;;;;;;;3.47;2.20;;;19.50;38.30;;;;;;8362214;28;20076;-52
2024/01/20 19:11:29;;;;;;;7.10;2.00;;;19.50;38.70;;;;;;8362117;28;20082;-54
2024/01/20 19:15:30;;;;;;;3.85;1.80;;;19.50;38.70;;;;;;8362557;28;20029;-47
2024/01/20 19:19:32;;;;;;;2.15;1.48;;;19.60;38.60;;;;;;8361753;28;20044;-58
2024/01/20 19:23:43;;;;;;;3.90;1.67;;;19.70;38.00;;;;;;8362001;28;20037;-55
2024/01/20 19:27:44;;;;;;;5.50;2.17;;;19.80;38.20;;;;;;8360074;28;20376;-45
2024/01/20 19:31:45;;;;;;;6.90;2.25;;;19.80;37.60;;;;;;8361248;28;20028;-54
2024/01/20 19:35:45;;;;;;;1.83;1.73;;;19.80;37.70;;;;;;8360380;28;20032;-53
2024/01/20 19:39:46;;;;;;;2.38;1.80;;;19.80;37.80;;;;;;8361202;28;20552;-51
2024/01/20 19:43:47;;;;;;;3.28;1.90;;;19.90;37.40;;;;;;8359693;28;20033;-46
2024/01/20 19:47:47;;;;;;;11.80;1.92;;;19.90;37.30;;;;;;8360641;28;20045;-46
2024/01/20 19:51:48;;;;;;;3.65;1.88;;;19.90;37.50;;;;;;8361013;28;20033;-48
2024/01/20 19:55:50;;;;;;;4.25;2.03;;;19.80;38.60;;;;;;8360802;28;20021;-48
2024/01/20 19:59:50;;;;;;;7.00;2.03;;;19.70;38.60;;;;;;8359199;28;20045;-46
2024/01/20 20:03:51;;;;;;;2.75;2.03;;;19.70;39.20;;;;;;8361604;28;20033;-48
2024/01/20 20:07:52;;;;;;;4.97;2.10;;;19.80;39.00;;;;;;8360360;28;20128;-49
2024/01/20 20:11:53;;;;;;;8.20;3.40;;;19.80;38.50;;;;;;8360092;28;20680;-48
2024/01/20 20:15:54;;;;;;;5.07;1.70;;;19.90;38.40;;;;;;8360128;28;20407;-48
2024/01/20 20:19:55;;;;;;;7.88;2.30;;;19.90;38.30;;;;;;8359859;28;20032;-48
2024/01/20 20:23:56;;;;;;;2.97;1.90;;;19.80;38.10;;;;;;8359508;28;20042;-47
2024/01/20 20:27:56;;;;;;;4.88;1.92;;;19.80;37.80;;;;;;8359531;28;20395;-49
2024/01/20 20:31:57;;;;;;;3.92;1.80;;;19.90;38.00;;;;;;8359153;28;20419;-52
2024/01/20 20:35:58;;;;;;;3.88;2.00;;;19.90;38.00;;;;;;8359557;28;20512;-49
2024/01/20 20:39:59;;;;;;;5.88;3.30;;;19.80;38.10;;;;;;8357867;28;20037;-50
2024/01/20 20:43:59;;;;;;;3.65;2.00;;;19.70;38.90;;;;;;8358774;28;20071;-53
2024/01/20 20:48:01;;;;;;;3.83;1.63;;;19.60;38.90;;;;;;8357104;28;20041;-48
2024/01/20 20:52:01;;;;;;;;;;;19.70;39.20;;;;;;8358749;28;20028;-56
2024/01/20 20:56:02;;;;;;;4.33;1.93;;;19.80;39.00;;;;;;8357833;28;19923;-52